Time;durP1;ratioP1;P1;durP2;ratioP2;P2;SDS_P1;SDS_P2;PMS_P1;PMS_P2;Temp;Humidity;BMP_temperature;BMP_pressure;BME280_temperature;BME280_humidity;BME280_pressure;Samples;Min_cycle;Max_cycle;Signal;HPM_P1;HPM_P2
2023/09/07 00:02:13;;;;;;;14.03;7.67;;;17.00;99.90;;;;;;4682670;30;20213;-78
2023/09/07 00:04:43;;;;;;;12.47;7.60;;;17.10;99.90;;;;;;4682786;30;20927;-78
2023/09/07 00:07:10;;;;;;;12.50;7.53;;;17.00;99.90;;;;;;4682300;30;20257;-78
2023/09/07 00:09:38;;;;;;;11.50;8.03;;;17.00;99.90;;;;;;4682403;30;20556;-77
2023/09/07 00:12:06;;;;;;;23.37;9.03;;;17.00;99.90;;;;;;4681530;30;20349;-78
2023/09/07 00:14:33;;;;;;;14.97;8.33;;;16.90;99.90;;;;;;4682935;30;20563;-81
2023/09/07 00:17:02;;;;;;;13.97;7.80;;;16.90;99.90;;;;;;4682332;30;20212;-81
2023/09/07 00:19:32;;;;;;;15.00;8.10;;;16.90;99.90;;;;;;4682332;30;20206;-81
2023/09/07 00:22:00;;;;;;;14.63;7.90;;;16.80;99.90;;;;;;4682831;30;20641;-81
2023/09/07 00:24:28;;;;;;;15.57;8.10;;;16.80;99.90;;;;;;4683405;30;20205;-81
2023/09/07 00:26:56;;;;;;;12.70;7.23;;;16.80;99.90;;;;;;4681312;30;20291;-77
2023/09/07 00:29:23;;;;;;;18.13;8.83;;;16.80;99.90;;;;;;4685398;30;20220;-80
2023/09/07 00:31:51;;;;;;;15.33;8.60;;;16.70;99.90;;;;;;4686298;30;20270;-81
2023/09/07 00:34:19;;;;;;;15.70;8.03;;;16.70;99.90;;;;;;4682415;30;20200;-80
2023/09/07 00:36:46;;;;;;;12.80;8.17;;;16.70;99.90;;;;;;4681885;30;20329;-80
2023/09/07 00:39:14;;;;;;;15.00;7.87;;;16.70;99.90;;;;;;4681983;30;20209;-81
2023/09/07 00:41:41;;;;;;;13.47;7.83;;;16.70;99.90;;;;;;4681900;30;20669;-78
2023/09/07 00:44:09;;;;;;;18.53;8.50;;;16.70;99.90;;;;;;4681137;30;20615;-78
2023/09/07 00:46:37;;;;;;;13.37;7.97;;;16.70;99.90;;;;;;4682076;30;20653;-78
2023/09/07 00:49:04;;;;;;;14.23;8.00;;;16.70;99.90;;;;;;4681776;30;20248;-78
2023/09/07 00:51:33;;;;;;;16.90;8.13;;;16.70;99.90;;;;;;4682063;30;20228;-78
2023/09/07 00:54:00;;;;;;;13.70;8.17;;;16.70;99.90;;;;;;4680990;30;20220;-81
2023/09/07 00:56:29;;;;;;;14.93;7.83;;;16.60;99.90;;;;;;4680700;30;20290;-81
2023/09/07 00:58:58;;;;;;;12.50;8.33;;;16.70;99.90;;;;;;4681768;30;20214;-81
2023/09/07 01:01:26;;;;;;;12.20;7.37;;;16.60;99.90;;;;;;4681943;30;20197;-81
2023/09/07 01:03:56;;;;;;;14.73;7.70;;;16.60;99.90;;;;;;4680431;30;20216;-81
2023/09/07 01:06:32;;;;;;;15.60;8.00;;;16.60;99.90;;;;;;4682227;30;20228;-78
2023/09/07 01:09:07;;;;;;;14.10;7.60;;;16.60;99.90;;;;;;4681743;30;20729;-81
2023/09/07 01:11:38;;;;;;;11.93;7.90;;;16.60;99.90;;;;;;4681182;30;20295;-81
2023/09/07 01:14:06;;;;;;;18.77;8.33;;;16.60;99.90;;;;;;4680608;30;20205;-81
2023/09/07 01:16:35;;;;;;;15.40;7.70;;;16.60;99.90;;;;;;4681112;30;20224;-81
2023/09/07 01:19:07;;;;;;;10.93;7.47;;;16.60;99.90;;;;;;4681870;30;20270;-77
2023/09/07 01:21:37;;;;;;;18.57;8.30;;;16.50;99.90;;;;;;4680555;30;20348;-78
2023/09/07 01:24:09;;;;;;;19.10;8.30;;;16.50;99.90;;;;;;4682120;30;20200;-78
2023/09/07 01:26:40;;;;;;;15.93;8.80;;;16.50;99.90;;;;;;4680429;30;20211;-81
2023/09/07 01:29:08;;;;;;;11.97;7.63;;;16.40;99.90;;;;;;4681959;30;20227;-81
2023/09/07 01:31:37;;;;;;;13.40;7.83;;;16.40;99.90;;;;;;4682137;30;20669;-83
2023/09/07 01:34:09;;;;;;;13.83;7.90;;;16.30;99.90;;;;;;4682075;30;20287;-81
2023/09/07 01:36:36;;;;;;;15.13;8.13;;;16.30;99.90;;;;;;4680678;30;20256;-81
2023/09/07 01:39:08;;;;;;;16.73;8.63;;;16.30;99.90;;;;;;4681678;30;20215;-81
2023/09/07 01:41:35;;;;;;;17.10;8.70;;;16.30;99.90;;;;;;4681709;30;20283;-81
2023/09/07 01:44:06;;;;;;;20.80;8.50;;;16.30;99.90;;;;;;4681627;30;20208;-82
2023/09/07 01:46:35;;;;;;;17.17;8.60;;;16.20;99.90;;;;;;4680805;30;20236;-81
2023/09/07 01:49:03;;;;;;;13.23;7.97;;;16.20;99.90;;;;;;4681622;30;20247;-81
2023/09/07 01:51:32;;;;;;;15.53;8.10;;;16.30;99.90;;;;;;4681514;30;20220;-81
2023/09/07 01:53:59;;;;;;;14.57;8.57;;;16.20;99.90;;;;;;4695196;30;20224;-77
2023/09/07 01:56:27;;;;;;;15.13;8.53;;;16.20;99.90;;;;;;4681301;30;20276;-78
2023/09/07 01:58:55;;;;;;;22.23;9.47;;;16.10;99.90;;;;;;4679951;30;20212;-78
2023/09/07 02:01:24;;;;;;;16.47;9.10;;;16.10;99.90;;;;;;4681020;30;20204;-77
2023/09/07 02:03:52;;;;;;;16.73;8.20;;;16.10;99.90;;;;;;4681560;30;20196;-78
2023/09/07 02:06:20;;;;;;;16.10;8.57;;;16.10;99.90;;;;;;4694458;30;20387;-77
2023/09/07 02:08:48;;;;;;;14.70;8.40;;;16.10;99.90;;;;;;4681290;30;20219;-77
2023/09/07 02:11:16;;;;;;;15.60;8.47;;;16.10;99.90;;;;;;4679930;30;20224;-81
2023/09/07 02:13:46;;;;;;;14.47;8.33;;;16.00;99.90;;;;;;4680573;30;20205;-78
2023/09/07 02:16:14;;;;;;;12.90;8.03;;;16.00;99.90;;;;;;4684652;30;20701;-77
2023/09/07 02:18:46;;;;;;;21.03;8.27;;;16.00;99.90;;;;;;4684726;30;20205;-77
2023/09/07 02:21:14;;;;;;;19.57;9.00;;;15.90;99.90;;;;;;4696702;30;20638;-80
2023/09/07 02:23:42;;;;;;;16.50;8.50;;;15.90;99.90;;;;;;4683473;30;20204;-80
2023/09/07 02:26:09;;;;;;;13.73;8.47;;;15.90;99.90;;;;;;4684623;30;20204;-77
2023/09/07 02:28:37;;;;;;;15.07;8.30;;;15.90;99.90;;;;;;4684251;30;20212;-77
2023/09/07 02:31:06;;;;;;;14.53;8.50;;;15.90;99.90;;;;;;4683718;30;20216;-77
2023/09/07 02:33:35;;;;;;;15.37;8.90;;;15.90;99.90;;;;;;4684150;30;20274;-80
2023/09/07 02:36:02;;;;;;;14.47;8.03;;;15.90;99.90;;;;;;4682937;30;20617;-78
2023/09/07 02:38:30;;;;;;;13.30;8.37;;;15.90;99.90;;;;;;4683956;30;20196;-78
2023/09/07 02:40:59;;;;;;;14.77;8.70;;;15.80;99.90;;;;;;4683034;30;20423;-81
2023/09/07 02:43:26;;;;;;;15.87;9.30;;;15.70;99.90;;;;;;4684315;30;20218;-80
2023/09/07 02:45:54;;;;;;;17.33;8.67;;;15.70;99.90;;;;;;4684526;30;20234;-80
2023/09/07 02:48:21;;;;;;;12.30;8.97;;;15.70;99.90;;;;;;4683818;30;20244;-80
2023/09/07 02:50:50;;;;;;;15.43;8.67;;;15.70;99.90;;;;;;4684067;30;20238;-79
2023/09/07 02:53:18;;;;;;;17.57;8.80;;;15.70;99.90;;;;;;4684006;30;20695;-77
2023/09/07 02:55:46;;;;;;;15.00;8.47;;;15.70;99.90;;;;;;4683157;30;20220;-78
2023/09/07 02:58:13;;;;;;;16.07;9.37;;;15.60;99.90;;;;;;4683947;30;20201;-77
2023/09/07 03:00:45;;;;;;;15.90;8.73;;;15.60;99.90;;;;;;4683871;30;20264;-78
2023/09/07 03:03:13;;;;;;;18.00;9.80;;;15.60;99.90;;;;;;4683929;30;20216;-76
2023/09/07 03:05:41;;;;;;;15.63;9.33;;;15.60;99.90;;;;;;4683730;30;20637;-78
2023/09/07 03:08:10;;;;;;;18.03;9.70;;;15.60;99.90;;;;;;4683858;30;20674;-78
2023/09/07 03:10:39;;;;;;;18.93;9.23;;;15.60;99.90;;;;;;4683757;30;20210;-79
2023/09/07 03:13:08;;;;;;;15.13;9.00;;;15.60;99.90;;;;;;4684069;30;20225;-76
2023/09/07 03:15:36;;;;;;;17.17;9.60;;;15.70;99.90;;;;;;4683915;30;20208;-79
2023/09/07 03:18:04;;;;;;;14.50;9.30;;;15.60;99.90;;;;;;4684010;30;20208;-78
2023/09/07 03:20:34;;;;;;;13.97;8.83;;;15.60;99.90;;;;;;4683860;30;20227;-77
2023/09/07 03:23:02;;;;;;;14.73;9.13;;;15.60;99.90;;;;;;4683807;30;20196;-77
2023/09/07 03:25:30;;;;;;;15.40;9.20;;;15.60;99.90;;;;;;4682785;30;20197;-78
2023/09/07 03:27:58;;;;;;;14.63;9.03;;;15.50;99.90;;;;;;4683422;30;20255;-78
2023/09/07 03:30:26;;;;;;;12.27;8.70;;;15.50;99.90;;;;;;4683393;30;20204;-78
2023/09/07 03:32:54;;;;;;;14.57;9.00;;;15.50;99.90;;;;;;4683660;30;20263;-78
2023/09/07 03:35:22;;;;;;;16.53;9.53;;;15.50;99.90;;;;;;4683476;30;20716;-79
2023/09/07 03:37:50;;;;;;;15.37;9.23;;;15.50;99.90;;;;;;4683551;30;20216;-77
2023/09/07 03:40:19;;;;;;;17.67;9.23;;;15.50;99.90;;;;;;4683339;30;20192;-79
2023/09/07 03:42:47;;;;;;;15.73;8.93;;;15.40;99.90;;;;;;4683285;30;20700;-77
2023/09/07 03:45:14;;;;;;;14.30;8.83;;;15.40;99.90;;;;;;4683521;30;20213;-78
2023/09/07 03:47:42;;;;;;;14.40;9.10;;;15.40;99.90;;;;;;4683117;30;20199;-78
2023/09/07 03:50:12;;;;;;;16.70;9.53;;;15.40;99.90;;;;;;4682022;30;20319;-78
2023/09/07 03:52:40;;;;;;;14.23;8.67;;;15.30;99.90;;;;;;4682089;30;20200;-77
2023/09/07 03:55:11;;;;;;;25.53;10.87;;;15.40;99.90;;;;;;4683461;30;20684;-78
2023/09/07 03:57:39;;;;;;;13.80;8.93;;;15.40;99.90;;;;;;4682080;30;20609;-78
2023/09/07 04:00:08;;;;;;;19.93;9.67;;;15.40;99.90;;;;;;4667777;30;20211;-78
2023/09/07 04:02:36;;;;;;;17.47;9.53;;;15.40;99.90;;;;;;4682945;30;20204;-77
2023/09/07 04:05:05;;;;;;;16.93;9.27;;;15.30;99.90;;;;;;4682561;30;20204;-77
2023/09/07 04:07:32;;;;;;;17.53;9.37;;;15.30;99.90;;;;;;4682807;30;20224;-77
2023/09/07 04:10:01;;;;;;;17.17;9.87;;;15.30;99.90;;;;;;4682664;30;20439;-78
2023/09/07 04:12:28;;;;;;;18.57;10.30;;;15.40;99.90;;;;;;4681333;30;20242;-78
2023/09/07 04:14:56;;;;;;;16.07;10.00;;;15.30;99.90;;;;;;4695701;30;20200;-77
2023/09/07 04:17:24;;;;;;;16.00;9.67;;;15.30;99.90;;;;;;4681138;30;20247;-76
2023/09/07 04:19:51;;;;;;;16.53;9.53;;;15.30;99.90;;;;;;4681594;30;20549;-77
2023/09/07 04:22:19;;;;;;;21.43;10.10;;;15.20;99.90;;;;;;4681598;30;20228;-77
2023/09/07 04:24:50;;;;;;;16.23;9.77;;;15.20;99.90;;;;;;4682541;30;20691;-77
2023/09/07 04:27:18;;;;;;;27.90;10.63;;;15.30;99.90;;;;;;4681913;30;20212;-77
2023/09/07 04:29:47;;;;;;;17.60;9.67;;;15.30;99.90;;;;;;4682625;30;20201;-81
2023/09/07 04:32:14;;;;;;;18.10;9.17;;;15.30;99.90;;;;;;4682449;30;20283;-81
2023/09/07 04:34:42;;;;;;;15.43;8.97;;;15.40;99.90;;;;;;4680768;30;20212;-80
2023/09/07 04:37:10;;;;;;;16.17;9.33;;;15.30;99.90;;;;;;4682327;30;20232;-80
2023/09/07 04:39:40;;;;;;;18.80;9.67;;;15.20;99.90;;;;;;4681353;30;20211;-80
2023/09/07 04:42:08;;;;;;;21.00;9.67;;;15.30;99.90;;;;;;4682372;30;20208;-80
2023/09/07 04:44:36;;;;;;;16.40;8.90;;;15.30;99.90;;;;;;4681988;30;20208;-80
2023/09/07 04:47:04;;;;;;;16.50;8.60;;;15.30;99.90;;;;;;4682159;30;20197;-80
2023/09/07 04:49:32;;;;;;;12.20;8.40;;;15.40;99.90;;;;;;4695001;30;20248;-80
2023/09/07 04:52:00;;;;;;;15.93;8.77;;;15.40;99.90;;;;;;4682275;30;20286;-80
2023/09/07 04:54:28;;;;;;;15.90;8.53;;;15.40;99.90;;;;;;4682035;30;20203;-79
2023/09/07 04:56:56;;;;;;;18.27;8.90;;;15.40;99.90;;;;;;4682279;30;20232;-80
2023/09/07 04:59:24;;;;;;;12.27;7.93;;;15.50;99.90;;;;;;4681050;30;20638;-79
2023/09/07 05:01:52;;;;;;;11.63;8.43;;;15.40;99.90;;;;;;4681037;30;20204;-77
2023/09/07 05:04:19;;;;;;;12.37;8.40;;;15.50;99.90;;;;;;4680596;30;20231;-76
2023/09/07 05:06:48;;;;;;;13.67;7.97;;;15.50;99.90;;;;;;4680930;30;20236;-77
2023/09/07 05:09:16;;;;;;;13.20;7.53;;;15.50;99.90;;;;;;4682015;30;20654;-77
2023/09/07 05:11:44;;;;;;;13.17;7.90;;;15.60;99.90;;;;;;4666369;30;20208;-79
2023/09/07 05:14:12;;;;;;;11.37;7.90;;;15.70;99.90;;;;;;4682126;30;20228;-77
2023/09/07 05:16:43;;;;;;;15.23;8.10;;;15.70;99.90;;;;;;4681609;30;20223;-77
2023/09/07 05:19:10;;;;;;;17.47;8.77;;;15.80;99.90;;;;;;4680667;30;20303;-77
2023/09/07 05:21:38;;;;;;;14.10;8.30;;;15.90;99.90;;;;;;4694413;30;20225;-78
2023/09/07 05:24:06;;;;;;;13.67;8.50;;;15.90;99.90;;;;;;4681109;30;20204;-81
2023/09/07 05:26:34;;;;;;;15.37;9.23;;;16.00;99.90;;;;;;4681804;30;20204;-80
2023/09/07 05:29:02;;;;;;;13.57;8.73;;;16.10;99.90;;;;;;4680349;30;20219;-79
2023/09/07 05:31:30;;;;;;;17.70;9.40;;;16.10;99.90;;;;;;4680845;30;20662;-79
2023/09/07 05:33:57;;;;;;;15.60;9.30;;;16.30;99.90;;;;;;4680554;30;20219;-79
2023/09/07 05:36:26;;;;;;;58.37;15.63;;;16.40;99.90;;;;;;4681410;30;20227;-79
2023/09/07 05:38:54;;;;;;;28.27;11.90;;;16.50;99.90;;;;;;4681779;30;20266;-79
2023/09/07 05:41:21;;;;;;;31.90;13.27;;;16.70;99.90;;;;;;4681629;30;20216;-79
2023/09/07 05:43:49;;;;;;;28.03;12.20;;;16.80;99.90;;;;;;4681391;30;20204;-79
2023/09/07 05:46:17;;;;;;;26.27;13.00;;;16.80;99.90;;;;;;4681376;30;20654;-78
2023/09/07 05:48:44;;;;;;;20.50;13.50;;;16.90;99.90;;;;;;4680856;30;20244;-80
2023/09/07 05:51:13;;;;;;;26.10;14.10;;;16.90;99.90;;;;;;4684866;30;20604;-80
2023/09/07 05:53:41;;;;;;;22.13;13.10;;;17.00;99.90;;;;;;4684942;30;20291;-79
2023/09/07 05:56:09;;;;;;;26.77;13.43;;;17.00;99.90;;;;;;4684712;30;20207;-80
2023/09/07 05:58:37;;;;;;;20.80;13.17;;;17.10;99.90;;;;;;4683903;30;20219;-79
2023/09/07 06:01:05;;;;;;;19.73;13.03;;;17.20;99.90;;;;;;4684799;30;20616;-79
2023/09/07 06:03:34;;;;;;;36.73;14.87;;;17.20;99.90;;;;;;4684641;30;20266;-79
2023/09/07 06:06:02;;;;;;;23.43;13.03;;;17.20;99.90;;;;;;4684973;30;20319;-78
2023/09/07 06:08:30;;;;;;;61.20;18.13;;;17.20;99.90;;;;;;4684326;30;20204;-78
2023/09/07 06:10:59;;;;;;;22.73;12.87;;;17.20;99.90;;;;;;4683770;30;20298;-79
2023/09/07 06:13:27;;;;;;;21.67;12.30;;;17.30;99.90;;;;;;4684849;30;20205;-79
2023/09/07 06:15:55;;;;;;;22.17;12.00;;;17.30;99.90;;;;;;4683330;30;20220;-80
2023/09/07 06:18:23;;;;;;;20.87;12.63;;;17.40;99.90;;;;;;4684475;30;20689;-80
2023/09/07 06:20:51;;;;;;;20.83;12.43;;;17.50;99.90;;;;;;4684458;30;20224;-80
2023/09/07 06:23:23;;;;;;;19.27;12.63;;;17.50;99.90;;;;;;4682821;30;20216;-81
2023/09/07 06:25:51;;;;;;;24.07;13.47;;;17.60;99.90;;;;;;4682890;30;20201;-81
2023/09/07 06:28:20;;;;;;;29.87;14.40;;;17.70;99.90;;;;;;4697520;30;20208;-79
2023/09/07 06:30:48;;;;;;;29.03;14.53;;;17.90;99.90;;;;;;4684258;30;20197;-81
2023/09/07 06:33:17;;;;;;;47.97;17.30;;;18.00;99.90;;;;;;4684409;30;20208;-81
2023/09/07 06:35:44;;;;;;;23.60;13.63;;;18.10;99.90;;;;;;4684367;30;20250;-80
2023/09/07 06:38:12;;;;;;;19.43;14.10;;;18.20;99.90;;;;;;4683282;30;20239;-77
2023/09/07 06:40:47;;;;;;;22.83;13.50;;;18.30;99.90;;;;;;4683146;30;20212;-76
2023/09/07 06:43:14;;;;;;;25.53;14.00;;;18.40;99.90;;;;;;4682754;30;20271;-79
2023/09/07 06:45:42;;;;;;;26.10;13.93;;;18.50;99.90;;;;;;4684049;30;20213;-79
2023/09/07 06:48:10;;;;;;;25.30;14.33;;;18.60;99.90;;;;;;4697088;30;20260;-78
2023/09/07 06:50:38;;;;;;;21.43;13.17;;;18.80;99.90;;;;;;4682701;30;20236;-77
2023/09/07 06:53:06;;;;;;;19.37;13.70;;;18.80;99.90;;;;;;4683954;30;20204;-77
2023/09/07 06:55:34;;;;;;;20.63;13.37;;;19.00;99.90;;;;;;4684181;30;20216;-80
2023/09/07 06:58:04;;;;;;;22.90;13.03;;;19.10;99.90;;;;;;4682152;30;20262;-81
2023/09/07 07:00:34;;;;;;;18.00;12.57;;;19.20;99.90;;;;;;4667591;30;20227;-78
2023/09/07 07:03:02;;;;;;;22.17;12.63;;;19.30;99.90;;;;;;4684007;30;20680;-78
2023/09/07 07:05:33;;;;;;;19.03;12.73;;;19.40;99.90;;;;;;4682358;30;20217;-80
2023/09/07 07:08:01;;;;;;;21.33;13.27;;;19.50;99.90;;;;;;4683342;30;20275;-79
2023/09/07 07:10:29;;;;;;;22.60;13.87;;;19.60;99.90;;;;;;4682625;30;20207;-78
2023/09/07 07:13:00;;;;;;;18.50;12.67;;;19.70;99.90;;;;;;4683513;30;20683;-79
2023/09/07 07:15:28;;;;;;;21.47;12.73;;;19.70;99.90;;;;;;4682470;30;20230;-79
2023/09/07 07:17:59;;;;;;;23.07;13.00;;;19.80;99.90;;;;;;4682931;30;20224;-77
2023/09/07 07:20:27;;;;;;;17.70;12.27;;;19.90;99.90;;;;;;4683186;30;20308;-80
2023/09/07 07:22:55;;;;;;;27.67;12.83;;;20.00;99.90;;;;;;4682364;30;20221;-78
2023/09/07 07:25:26;;;;;;;22.23;11.30;;;20.10;99.90;;;;;;4682388;30;20208;-81
2023/09/07 07:27:54;;;;;;;18.67;11.47;;;20.30;99.90;;;;;;4683355;30;20205;-80
2023/09/07 07:30:22;;;;;;;20.37;13.13;;;20.40;99.90;;;;;;4681495;30;20216;-81
2023/09/07 07:32:53;;;;;;;20.83;12.70;;;20.50;99.90;;;;;;4680889;30;20232;-81
2023/09/07 07:35:27;;;;;;;24.77;11.90;;;20.60;99.90;;;;;;4681905;30;20232;-81
2023/09/07 07:37:54;;;;;;;19.90;12.10;;;20.70;99.90;;;;;;4681714;30;20228;-81
2023/09/07 07:40:22;;;;;;;25.97;12.37;;;20.80;99.90;;;;;;4682879;30;20212;-81
2023/09/07 07:42:56;;;;;;;21.30;12.00;;;20.90;99.90;;;;;;4681454;30;20223;-82
2023/09/07 07:51:45;;;;;;;18.97;11.57;;;21.10;99.90;;;;;;4677505;30;20239;-84
2023/09/07 08:04:07;;;;;;;28.23;12.47;;;21.60;99.90;;;;;;4690834;25;20247;-87
2023/09/07 08:10:57;;;;;;;19.13;10.40;;;22.10;99.90;;;;;;4670657;30;20319;-86
2023/09/07 08:13:28;;;;;;;27.47;12.80;;;22.20;99.90;;;;;;4697844;30;20208;-81
2023/09/07 08:15:57;;;;;;;19.97;11.17;;;22.40;99.90;;;;;;4699040;30;20272;-81
2023/09/07 08:18:26;;;;;;;16.07;10.77;;;22.50;99.90;;;;;;4697378;30;20314;-80
2023/09/07 08:21:03;;;;;;;26.23;12.20;;;22.70;99.90;;;;;;4699399;30;20587;-82
2023/09/07 08:23:31;;;;;;;25.05;11.05;;;22.80;99.90;;;;;;4712272;30;20215;-81
2023/09/07 08:25:59;;;;;;;21.33;11.07;;;23.00;99.90;;;;;;4697699;30;20668;-77
2023/09/07 08:28:29;;;;;;;18.63;10.48;;;23.40;99.90;;;;;;4698037;30;20211;-80
2023/09/07 08:31:22;;;;;;;15.77;9.93;;;24.20;99.90;;;;;;4698305;30;20192;-83
2023/09/07 08:33:57;;;;;;;16.30;9.40;;;25.30;99.90;;;;;;4697392;30;20703;-79
2023/09/07 08:36:32;;;;;;;16.20;9.93;;;25.90;99.90;;;;;;4698068;30;20228;-78
2023/09/07 08:39:09;;;;;;;16.30;10.02;;;26.50;99.90;;;;;;4712436;30;20227;-77
2023/09/07 08:41:41;;;;;;;24.15;10.32;;;26.90;99.90;;;;;;4698923;30;20598;-79
2023/09/07 08:44:32;;;;;;;16.23;8.93;;;27.40;99.90;;;;;;4698890;30;20212;-79
2023/09/07 08:47:08;;;;;;;14.15;8.88;;;27.80;99.90;;;;;;4699265;30;20233;-79
2023/09/07 08:49:36;;;;;;;16.02;9.38;;;28.10;99.90;;;;;;4699264;30;20558;-80
2023/09/07 08:52:04;;;;;;;17.13;9.73;;;28.20;99.90;;;;;;4698872;30;20224;-80
2023/09/07 08:54:33;;;;;;;17.23;9.77;;;28.10;99.90;;;;;;4711613;30;20290;-80
2023/09/07 08:57:04;;;;;;;16.50;9.20;;;28.20;99.90;;;;;;4712249;30;20214;-79
2023/09/07 08:59:34;;;;;;;14.20;8.68;;;28.50;99.90;;;;;;4711996;30;20204;-78
2023/09/07 09:02:08;;;;;;;17.20;9.45;;;28.70;99.90;;;;;;4711632;30;20299;-80
2023/09/07 09:04:37;;;;;;;14.90;8.98;;;29.00;99.90;;;;;;4697720;30;20329;-78
2023/09/07 09:07:05;;;;;;;28.85;9.82;;;29.20;99.90;;;;;;4698922;30;20685;-76
2023/09/07 09:09:38;;;;;;;38.17;10.82;;;29.50;99.90;;;;;;4698745;30;20748;-78
2023/09/07 09:12:12;;;;;;;20.98;8.88;;;29.70;99.90;;;;;;4697691;30;20204;-78
2023/09/07 09:14:44;;;;;;;14.98;7.60;;;29.70;99.90;;;;;;4698807;30;20214;-81
2023/09/07 09:17:14;;;;;;;13.38;7.75;;;29.90;99.90;;;;;;4697161;30;20251;-79
2023/09/07 09:19:42;;;;;;;12.80;7.80;;;30.00;99.90;;;;;;4711363;30;20204;-80
2023/09/07 09:22:16;;;;;;;21.15;8.48;;;30.20;99.90;;;;;;4698047;30;20629;-82
2023/09/07 09:24:49;;;;;;;15.13;7.15;;;30.40;99.90;;;;;;4696703;30;20207;-83
2023/09/07 09:27:18;;;;;;;14.32;7.88;;;30.40;99.90;;;;;;4697338;30;20550;-82
2023/09/07 09:29:49;;;;;;;20.00;8.30;;;30.60;99.90;;;;;;4698600;30;20654;-81
2023/09/07 09:32:39;;;;;;;20.35;8.57;;;30.70;99.90;;;;;;4710609;30;20231;-81
2023/09/07 09:35:08;;;;;;;13.57;7.57;;;30.90;99.90;;;;;;4697822;30;20221;-80
2023/09/07 09:37:43;;;;;;;12.07;7.72;;;30.90;99.90;;;;;;4696771;30;20238;-78
2023/09/07 09:40:16;;;;;;;13.77;7.40;;;31.00;99.90;;;;;;4698768;30;20218;-80
2023/09/07 09:42:45;;;;;;;14.80;7.40;;;31.20;99.90;;;;;;4698256;30;20231;-81
2023/09/07 09:45:14;;;;;;;15.27;7.75;;;31.70;99.90;;;;;;4697749;30;20278;-80
2023/09/07 09:47:43;;;;;;;11.35;6.45;;;31.90;99.90;;;;;;4698769;30;20200;-80
2023/09/07 09:50:13;;;;;;;15.35;7.40;;;31.90;99.90;;;;;;4698431;30;20454;-80
2023/09/07 09:52:42;;;;;;;10.88;6.40;;;32.20;99.90;;;;;;4698300;30;20230;-78
2023/09/07 09:55:12;;;;;;;9.55;6.80;;;32.40;99.90;;;;;;4698477;30;20208;-79
2023/09/07 09:57:43;;;;;;;10.05;6.70;;;32.50;99.90;;;;;;4698240;30;20227;-78
2023/09/07 10:00:25;;;;;;;12.38;6.72;;;32.70;99.90;;;;;;4711437;30;20208;-80
2023/09/07 10:03:00;;;;;;;11.93;6.10;;;32.90;99.90;;;;;;4697055;30;20322;-80
2023/09/07 10:05:29;;;;;;;9.23;5.40;;;32.90;99.90;;;;;;4697640;30;20224;-80
2023/09/07 10:08:05;;;;;;;7.28;4.40;;;33.10;99.90;;;;;;4697047;30;20207;-79
2023/09/07 10:10:37;;;;;;;9.35;5.00;;;33.10;98.40;;;;;;4698705;30;20684;-78
2023/09/07 10:13:06;;;;;;;5.65;4.38;;;33.30;98.00;;;;;;4698605;30;20212;-82
2023/09/07 10:15:38;;;;;;;9.18;4.97;;;33.30;97.80;;;;;;4698608;30;20579;-79
2023/09/07 10:18:15;;;;;;;7.30;4.63;;;33.50;96.80;;;;;;4698329;30;20258;-80
2023/09/07 10:20:55;;;;;;;10.40;4.95;;;33.50;95.70;;;;;;4698398;30;20277;-80
2023/09/07 10:23:36;;;;;;;7.45;4.50;;;33.80;95.00;;;;;;4698263;30;20743;-81
2023/09/07 10:26:10;;;;;;;6.65;4.65;;;33.90;95.10;;;;;;4696917;30;20669;-80
2023/09/07 10:28:44;;;;;;;6.90;4.35;;;34.00;94.50;;;;;;4696776;30;20719;-81
2023/09/07 10:31:17;;;;;;;8.18;4.38;;;34.10;93.70;;;;;;4698347;30;20196;-82
2023/09/07 10:33:49;;;;;;;5.93;4.38;;;34.10;93.80;;;;;;4697693;30;20271;-80
2023/09/07 10:36:27;;;;;;;23.25;6.43;;;34.20;93.60;;;;;;4713204;30;20255;-78
2023/09/07 10:38:59;;;;;;;8.68;4.70;;;34.20;91.80;;;;;;4700199;30;20687;-80
2023/09/07 10:41:43;;;;;;;9.27;4.75;;;34.30;91.40;;;;;;4700155;30;20280;-81
2023/09/07 10:44:15;;;;;;;8.50;4.70;;;34.40;91.30;;;;;;4699923;30;20203;-80
2023/09/07 10:46:52;;;;;;;7.13;4.43;;;34.30;90.50;;;;;;4698751;30;20219;-80
2023/09/07 10:49:24;;;;;;;7.97;4.45;;;34.20;90.10;;;;;;4698830;30;20214;-83
2023/09/07 10:51:54;;;;;;;7.70;4.45;;;34.30;89.30;;;;;;4701021;30;20306;-81
2023/09/07 10:54:25;;;;;;;15.43;5.03;;;34.30;89.40;;;;;;4700527;30;20681;-81
2023/09/07 10:56:57;;;;;;;13.18;5.03;;;34.00;88.30;;;;;;4700216;30;20249;-81
2023/09/07 10:59:28;;;;;;;6.20;4.07;;;33.80;90.00;;;;;;4699214;30;20241;-81
2023/09/07 11:02:09;;;;;;;7.35;4.10;;;33.70;89.70;;;;;;4700325;30;20573;-80
2023/09/07 11:04:38;;;;;;;7.30;4.32;;;34.10;89.90;;;;;;4699967;30;20231;-82
2023/09/07 11:07:18;;;;;;;6.63;4.43;;;34.50;87.20;;;;;;4699141;30;20239;-81
2023/09/07 11:09:46;;;;;;;7.68;4.57;;;34.60;85.00;;;;;;4698941;30;20211;-81
2023/09/07 11:12:21;;;;;;;4.55;3.70;;;34.80;86.40;;;;;;4698742;30;20212;-80
2023/09/07 11:14:51;;;;;;;8.45;3.70;;;35.30;86.10;;;;;;4699621;30;20214;-80
2023/09/07 11:17:28;;;;;;;7.10;3.67;;;35.40;82.70;;;;;;4699793;30;20662;-80
2023/09/07 11:19:57;;;;;;;6.22;3.55;;;35.50;83.30;;;;;;4698943;30;20290;-80
2023/09/07 11:22:25;;;;;;;7.57;3.70;;;35.70;82.40;;;;;;4699046;30;20216;-80
2023/09/07 11:25:06;;;;;;;7.97;4.40;;;35.70;80.10;;;;;;4712755;30;20223;-81
2023/09/07 11:27:34;;;;;;;6.43;3.83;;;36.10;80.40;;;;;;4700346;30;20565;-81
2023/09/07 11:30:04;;;;;;;9.45;4.40;;;36.70;79.60;;;;;;4712622;30;20192;-82
2023/09/07 11:32:42;;;;;;;9.23;3.92;;;37.00;77.80;;;;;;4699503;30;20207;-82
2023/09/07 11:35:10;;;;;;;9.77;4.03;;;36.80;76.70;;;;;;4700144;30;20206;-81
2023/09/07 11:37:42;;;;;;;4.07;3.30;;;36.70;77.90;;;;;;4700048;30;20733;-80
2023/09/07 11:40:12;;;;;;;5.75;3.50;;;36.90;75.40;;;;;;4699964;30;20204;-81
2023/09/07 11:42:42;;;;;;;7.03;3.20;;;37.10;72.20;;;;;;4699029;30;20238;-81
2023/09/07 11:45:10;;;;;;;6.07;3.50;;;37.30;72.40;;;;;;4697743;30;20216;-80
2023/09/07 11:47:46;;;;;;;5.50;3.55;;;37.50;71.10;;;;;;4699171;30;20270;-80
2023/09/07 11:50:17;;;;;;;4.63;3.40;;;37.80;71.80;;;;;;4699828;30;20277;-80
2023/09/07 11:52:47;;;;;;;6.28;3.58;;;38.30;69.60;;;;;;4698962;30;20574;-80
2023/09/07 11:55:17;;;;;;;6.57;3.50;;;38.30;68.60;;;;;;4699575;30;20250;-81
2023/09/07 12:02:29;;;;;;;6.63;3.88;;;38.70;66.50;;;;;;4663607;30;20235;-83
2023/09/07 12:05:20;;;;;;;8.07;3.25;;;39.00;63.70;;;;;;4612941;31;20293;-83
2023/09/07 12:08:08;;;;;;;18.27;4.47;;;39.20;62.80;;;;;;4612215;31;20226;-82
2023/09/07 12:10:39;;;;;;;5.72;3.30;;;39.50;62.70;;;;;;4612652;31;20219;-81
2023/09/07 12:13:06;;;;;;;7.07;2.90;;;39.20;62.40;;;;;;4612635;31;20257;-81
2023/09/07 12:15:35;;;;;;;3.25;2.95;;;39.40;61.50;;;;;;4611913;31;20207;-75
2023/09/07 12:18:03;;;;;;;3.78;2.70;;;39.60;60.20;;;;;;4612494;31;20257;-78
2023/09/07 12:20:30;;;;;;;5.63;2.80;;;39.90;60.00;;;;;;4612042;31;20737;-78
2023/09/07 12:22:59;;;;;;;4.75;3.08;;;39.70;58.70;;;;;;4611811;31;20233;-83
2023/09/07 12:25:27;;;;;;;8.32;3.05;;;39.50;58.90;;;;;;4611685;31;20227;-77
2023/09/07 12:27:54;;;;;;;5.82;2.90;;;39.90;58.20;;;;;;4611242;31;20689;-77
2023/09/07 12:30:23;;;;;;;8.85;2.97;;;40.10;57.00;;;;;;4612041;31;20716;-77
2023/09/07 12:32:51;;;;;;;3.55;2.80;;;39.80;55.80;;;;;;4611357;31;20614;-79
2023/09/07 12:35:20;;;;;;;5.03;2.78;;;39.20;56.20;;;;;;4602308;31;20258;-75
2023/09/07 12:37:48;;;;;;;3.42;2.70;;;38.50;56.20;;;;;;4596860;31;20223;-77
2023/09/07 12:40:16;;;;;;;5.63;3.40;;;37.90;58.80;;;;;;4611029;31;20222;-77
2023/09/07 12:42:45;;;;;;;11.88;4.05;;;37.40;60.10;;;;;;4692207;30;20703;-77
2023/09/07 12:45:16;;;;;;;5.82;3.00;;;37.40;62.60;;;;;;4696057;30;20245;-78
2023/09/07 12:47:43;;;;;;;7.75;3.25;;;37.90;60.00;;;;;;4696261;30;20212;-78
2023/09/07 12:50:12;;;;;;;3.78;2.97;;;37.80;61.00;;;;;;4696140;30;20219;-78
2023/09/07 12:52:40;;;;;;;4.80;2.83;;;38.00;59.10;;;;;;4698778;30;20250;-78
2023/09/07 12:55:08;;;;;;;6.05;3.10;;;37.60;60.20;;;;;;4698506;30;20207;-78
2023/09/07 12:57:37;;;;;;;3.90;2.80;;;37.30;59.60;;;;;;4698036;30;20282;-77
2023/09/07 13:00:06;;;;;;;5.80;3.08;;;37.10;59.90;;;;;;4697765;30;20297;-77
2023/09/07 13:02:33;;;;;;;5.10;2.88;;;36.70;59.70;;;;;;4698148;30;20207;-78
2023/09/07 13:05:04;;;;;;;3.92;2.70;;;36.40;60.00;;;;;;4698370;30;20236;-78
2023/09/07 13:07:32;;;;;;;6.15;2.67;;;36.00;61.80;;;;;;4698076;30;20242;-76
2023/09/07 13:10:03;;;;;;;6.22;3.20;;;35.30;62.60;;;;;;4697551;30;20211;-78
2023/09/07 13:12:32;;;;;;;4.63;3.30;;;34.50;62.60;;;;;;4697323;30;20294;-77
2023/09/07 13:15:00;;;;;;;6.00;3.10;;;34.20;65.30;;;;;;4698242;30;20211;-77